createdAt,value
2018-04-15T00:01:15.100Z,10.90
2018-04-15T00:03:42.807Z,10.90
2018-04-15T00:06:11.826Z,10.80
2018-04-15T00:08:39.308Z,10.90
2018-04-15T00:11:06.908Z,10.80
2018-04-15T00:13:34.411Z,10.80
2018-04-15T00:16:01.949Z,10.80
2018-04-15T00:18:29.420Z,10.80
2018-04-15T00:20:57.798Z,10.90
2018-04-15T00:23:25.256Z,10.80
2018-04-15T00:25:52.876Z,10.90
2018-04-15T00:28:21.378Z,10.90
2018-04-15T00:30:49.730Z,10.90
2018-04-15T00:33:17.994Z,11.00
2018-04-15T00:35:45.628Z,11.00
2018-04-15T00:38:13.863Z,10.90
2018-04-15T00:40:42.195Z,10.90
2018-04-15T00:43:10.308Z,10.90
2018-04-15T00:45:38.621Z,10.90
2018-04-15T00:48:06.154Z,10.90
2018-04-15T00:50:33.668Z,10.90
2018-04-15T00:53:01.394Z,10.90
2018-04-15T00:55:29.216Z,10.90
2018-04-15T00:57:56.800Z,11.00
2018-04-15T01:00:24.367Z,11.00
2018-04-15T01:02:52.000Z,11.00
2018-04-15T01:05:19.543Z,11.00
2018-04-15T01:07:47.845Z,10.90
2018-04-15T01:10:15.439Z,10.90
2018-04-15T01:12:43.666Z,10.90
2018-04-15T01:15:11.169Z,10.90
2018-04-15T01:17:38.726Z,10.80
2018-04-15T01:20:06.296Z,10.80
2018-04-15T01:22:33.845Z,10.80
2018-04-15T01:25:01.355Z,10.70
2018-04-15T01:27:28.866Z,10.70
2018-04-15T01:29:56.731Z,10.70
2018-04-15T01:32:24.354Z,10.70
2018-04-15T01:34:52.034Z,10.70
2018-04-15T01:37:21.392Z,10.70
2018-04-15T01:39:49.100Z,10.70
2018-04-15T01:42:17.654Z,10.70
2018-04-15T01:44:45.914Z,10.70
2018-04-15T01:47:13.675Z,10.60
2018-04-15T01:49:41.358Z,10.60
2018-04-15T01:52:09.055Z,10.60
2018-04-15T01:54:36.759Z,10.60
2018-04-15T01:57:04.600Z,10.60
2018-04-15T01:59:33.045Z,10.60
2018-04-15T02:02:00.666Z,10.60
2018-04-15T02:04:29.185Z,10.50
2018-04-15T02:06:56.986Z,10.50
2018-04-15T02:09:24.540Z,10.50
2018-04-15T02:11:52.177Z,10.50
2018-04-15T02:14:19.788Z,10.50
2018-04-15T02:16:47.482Z,10.50
2018-04-15T02:19:15.459Z,10.50
2018-04-15T02:21:43.109Z,10.50
2018-04-15T02:24:11.517Z,10.50
2018-04-15T02:26:39.216Z,10.50
2018-04-15T02:29:06.907Z,10.50
2018-04-15T02:31:34.590Z,10.50
2018-04-15T02:34:03.121Z,10.40
2018-04-15T02:36:34.240Z,10.40
2018-04-15T02:39:02.625Z,10.40
2018-04-15T02:41:31.141Z,10.30
2018-04-15T02:43:58.716Z,10.30
2018-04-15T02:46:26.489Z,10.30
2018-04-15T02:48:54.098Z,10.30
2018-04-15T02:51:22.624Z,10.40
2018-04-15T02:53:52.884Z,10.40
2018-04-15T02:56:20.932Z,10.40
2018-04-15T02:58:48.528Z,10.40
2018-04-15T03:01:16.305Z,10.40
2018-04-15T03:03:45.527Z,10.40
2018-04-15T03:06:14.009Z,10.50
2018-04-15T03:08:44.699Z,10.40
2018-04-15T03:11:12.268Z,10.40
2018-04-15T03:13:39.795Z,10.40
2018-04-15T03:16:07.581Z,10.40
2018-04-15T03:18:35.140Z,10.40
2018-04-15T03:21:02.785Z,10.40
2018-04-15T03:23:31.290Z,10.40
2018-04-15T03:25:58.875Z,10.40
2018-04-15T03:28:26.357Z,10.30
2018-04-15T03:30:53.912Z,10.30
2018-04-15T03:33:21.450Z,10.30
2018-04-15T03:35:49.034Z,10.30
2018-04-15T03:38:16.601Z,10.30
2018-04-15T03:40:44.177Z,10.30
2018-04-15T03:43:11.790Z,10.30
2018-04-15T03:45:39.423Z,10.30
2018-04-15T03:48:06.956Z,10.30
2018-04-15T03:50:34.506Z,10.30
2018-04-15T03:53:02.207Z,10.30
2018-04-15T03:55:29.732Z,10.30
2018-04-15T03:57:58.013Z,10.30
2018-04-15T04:00:25.564Z,10.30
2018-04-15T04:02:53.460Z,10.30
2018-04-15T04:05:21.134Z,10.30
2018-04-15T04:07:48.848Z,10.30
2018-04-15T04:10:17.290Z,10.30
2018-04-15T04:12:44.864Z,10.20
2018-04-15T04:15:12.383Z,10.30
2018-04-15T04:17:39.899Z,10.30
2018-04-15T04:20:10.903Z,10.30
2018-04-15T04:22:39.183Z,10.30
2018-04-15T04:25:06.760Z,10.30
2018-04-15T04:27:35.228Z,10.30
2018-04-15T04:30:02.811Z,10.30
2018-04-15T04:32:30.362Z,10.30
2018-04-15T04:34:57.898Z,10.30
2018-04-15T04:37:26.266Z,10.30
2018-04-15T04:39:53.771Z,10.40
2018-04-15T04:42:22.360Z,10.40
2018-04-15T04:44:53.737Z,10.40
2018-04-15T04:47:21.322Z,10.40
2018-04-15T04:49:48.882Z,10.50
2018-04-15T04:52:16.405Z,10.60
2018-04-15T04:54:43.964Z,10.60
2018-04-15T04:57:11.574Z,10.60
2018-04-15T04:59:39.266Z,10.70
2018-04-15T05:02:06.758Z,10.70
2018-04-15T05:04:35.022Z,10.80
2018-04-15T05:07:02.611Z,10.80
2018-04-15T05:09:30.947Z,10.90
2018-04-15T05:12:00.136Z,10.80
2018-04-15T05:14:27.645Z,10.90
2018-04-15T05:16:55.543Z,10.90
2018-04-15T05:19:23.143Z,10.90
2018-04-15T05:21:50.943Z,11.00
2018-04-15T05:24:19.243Z,11.00
2018-04-15T05:26:46.944Z,11.00
2018-04-15T05:29:14.504Z,11.10
2018-04-15T05:31:42.557Z,11.10
2018-04-15T05:34:10.038Z,11.10
2018-04-15T05:36:37.631Z,11.10
2018-04-15T05:39:05.178Z,11.10
2018-04-15T05:41:32.881Z,11.10
2018-04-15T05:44:00.394Z,11.10
2018-04-15T05:46:27.991Z,11.10
2018-04-15T05:48:55.585Z,11.10
2018-04-15T05:51:23.942Z,11.10
2018-04-15T05:53:54.693Z,11.10
2018-04-15T05:56:22.211Z,11.10
2018-04-15T05:58:49.727Z,11.10
2018-04-15T06:01:17.385Z,11.10
2018-04-15T06:03:45.031Z,11.10
2018-04-15T06:06:12.788Z,11.10
2018-04-15T06:08:40.458Z,11.10
2018-04-15T06:11:11.138Z,11.10
2018-04-15T06:13:38.681Z,11.10
2018-04-15T06:16:06.253Z,11.10
2018-04-15T06:18:36.933Z,11.10
2018-04-15T06:21:04.431Z,11.20
2018-04-15T06:23:31.999Z,11.20
2018-04-15T06:25:59.522Z,11.20
2018-04-15T06:28:27.048Z,11.20
2018-04-15T06:30:55.548Z,11.20
2018-04-15T06:33:23.110Z,11.20
2018-04-15T06:35:51.638Z,11.30
2018-04-15T06:38:19.924Z,11.30
2018-04-15T06:40:47.492Z,11.30
2018-04-15T06:43:18.168Z,11.40
2018-04-15T06:45:45.928Z,11.40
2018-04-15T06:48:13.453Z,11.40
2018-04-15T06:50:41.090Z,11.50
2018-04-15T06:53:08.663Z,11.50
2018-04-15T06:55:36.429Z,11.50
2018-04-15T06:58:04.721Z,11.60
2018-04-15T07:00:32.400Z,11.60
2018-04-15T07:02:59.948Z,11.60
2018-04-15T07:05:27.459Z,11.70
2018-04-15T07:07:54.924Z,11.70
2018-04-15T07:10:22.526Z,11.80
2018-04-15T07:12:50.035Z,11.80
2018-04-15T07:15:17.567Z,11.70
2018-04-15T07:17:45.100Z,11.70
2018-04-15T07:20:12.539Z,11.70
2018-04-15T07:22:40.040Z,11.70
2018-04-15T07:25:08.288Z,11.70
2018-04-15T07:27:35.751Z,11.70
2018-04-15T07:30:03.643Z,11.80
2018-04-15T07:32:31.586Z,11.80
2018-04-15T07:34:59.815Z,11.90
2018-04-15T07:37:28.004Z,11.90
2018-04-15T07:39:55.659Z,11.90
2018-04-15T07:42:23.983Z,12.00
2018-04-15T07:44:51.472Z,12.00
2018-04-15T07:47:19.323Z,12.00
2018-04-15T07:49:46.810Z,12.10
2018-04-15T07:52:14.304Z,12.10
2018-04-15T07:54:41.767Z,12.10
2018-04-15T07:57:09.301Z,12.10
2018-04-15T07:59:36.741Z,12.10
2018-04-15T08:02:04.302Z,12.20
2018-04-15T08:04:31.908Z,12.30
2018-04-15T08:06:59.430Z,12.40
2018-04-15T08:09:27.088Z,12.40
2018-04-15T08:11:55.398Z,12.50
2018-04-15T08:14:22.911Z,12.50
2018-04-15T08:16:51.066Z,12.50
2018-04-15T08:19:19.302Z,12.40
2018-04-15T08:21:46.863Z,12.40
2018-04-15T08:24:14.307Z,12.40
2018-04-15T08:26:41.970Z,12.50
2018-04-15T08:29:09.635Z,12.50
2018-04-15T08:31:37.207Z,12.60
2018-04-15T08:34:05.368Z,12.70
2018-04-15T08:36:32.839Z,12.70
2018-04-15T08:39:00.316Z,12.80
2018-04-15T08:41:27.888Z,12.90
2018-04-15T08:43:55.433Z,13.10
2018-04-15T08:46:23.668Z,15.00
2018-04-15T08:48:51.299Z,14.90
2018-04-15T08:51:18.854Z,16.50
2018-04-15T08:53:46.529Z,17.30
2018-04-15T08:56:14.053Z,18.00
2018-04-15T08:58:41.633Z,18.00
2018-04-15T09:01:09.198Z,17.90
2018-04-15T09:03:36.718Z,17.60
2018-04-15T09:06:04.175Z,17.40
2018-04-15T09:08:32.468Z,16.00
2018-04-15T09:11:00.718Z,17.00
2018-04-15T09:13:28.210Z,17.00
2018-04-15T09:15:55.807Z,18.40
2018-04-15T09:18:24.005Z,18.60
2018-04-15T09:20:51.534Z,18.60
2018-04-15T09:23:19.128Z,19.10
2018-04-15T09:25:47.413Z,18.90
2018-04-15T09:28:15.444Z,18.90
2018-04-15T09:30:43.031Z,17.90
2018-04-15T09:33:11.293Z,17.90
2018-04-15T09:35:38.872Z,17.90
2018-04-15T09:38:07.056Z,18.90
2018-04-15T09:40:35.345Z,18.20
2018-04-15T09:43:02.848Z,18.10
2018-04-15T09:45:30.338Z,18.80
2018-04-15T09:47:59.372Z,18.80
2018-04-15T09:50:27.949Z,19.20
2018-04-15T09:52:56.206Z,18.40
2018-04-15T09:55:24.584Z,17.40
2018-04-15T09:57:52.903Z,17.80
2018-04-15T10:00:21.145Z,18.70
2018-04-15T10:02:49.454Z,19.10
2018-04-15T10:05:17.748Z,19.40
2018-04-15T10:07:45.288Z,19.40
2018-04-15T10:10:13.548Z,20.30
2018-04-15T10:12:41.824Z,20.00
2018-04-15T10:15:09.342Z,20.00
2018-04-15T10:17:36.985Z,19.90
2018-04-15T10:20:05.243Z,19.20
2018-04-15T10:22:33.528Z,19.00
2018-04-15T10:25:01.803Z,19.60
2018-04-15T10:27:30.169Z,20.40
2018-04-15T10:29:57.646Z,20.40
2018-04-15T10:32:25.116Z,21.10
2018-04-15T10:34:52.620Z,21.60
2018-04-15T10:37:20.111Z,21.90
2018-04-15T10:39:47.659Z,22.30
2018-04-15T10:42:15.150Z,22.30
2018-04-15T10:44:42.701Z,22.20
2018-04-15T10:47:10.283Z,22.10
2018-04-15T10:49:37.795Z,22.20
2018-04-15T10:52:05.504Z,22.40
2018-04-15T10:54:32.993Z,22.60
2018-04-15T10:57:01.519Z,23.20
2018-04-15T10:59:29.012Z,23.20
2018-04-15T11:01:56.587Z,22.70
2018-04-15T11:04:24.791Z,22.50
2018-04-15T11:06:53.130Z,22.30
2018-04-15T11:09:20.625Z,22.30
2018-04-15T11:11:48.681Z,22.30
2018-04-15T11:14:16.169Z,21.90
2018-04-15T11:16:43.806Z,22.20
2018-04-15T11:19:11.346Z,22.80
2018-04-15T11:21:39.968Z,23.40
2018-04-15T11:24:07.463Z,23.70
2018-04-15T11:26:34.961Z,24.00
2018-04-15T11:29:02.500Z,24.30
2018-04-15T11:31:30.065Z,23.80
2018-04-15T11:33:58.406Z,24.50
2018-04-15T11:36:26.220Z,24.40
2018-04-15T11:38:53.741Z,23.70
2018-04-15T11:41:21.268Z,22.60
2018-04-15T11:43:49.666Z,23.60
2018-04-15T11:46:18.142Z,23.50
2018-04-15T11:48:45.611Z,23.40
2018-04-15T11:51:13.388Z,23.30
2018-04-15T11:53:40.878Z,23.90
2018-04-15T11:56:08.417Z,24.30
2018-04-15T11:58:36.053Z,25.00
2018-04-15T12:01:03.665Z,24.70
2018-04-15T12:03:31.429Z,24.60
2018-04-15T12:05:58.985Z,24.20
2018-04-15T12:08:26.472Z,23.00
2018-04-15T12:10:54.796Z,22.80
2018-04-15T12:13:22.412Z,22.80
2018-04-15T12:15:49.939Z,23.50
2018-04-15T12:18:17.441Z,24.40
2018-04-15T12:20:45.724Z,25.20
2018-04-15T12:23:13.345Z,25.20
2018-04-15T12:25:40.928Z,23.90
2018-04-15T12:28:08.441Z,24.10
2018-04-15T12:30:36.269Z,24.80
2018-04-15T12:33:03.872Z,25.50
2018-04-15T12:35:31.397Z,26.10
2018-04-15T12:37:58.947Z,26.70
2018-04-15T12:40:26.628Z,27.30
2018-04-15T12:42:54.435Z,26.60
2018-04-15T12:45:21.907Z,26.50
2018-04-15T12:47:49.419Z,26.40
2018-04-15T12:50:16.988Z,26.10
2018-04-15T12:52:44.522Z,26.80
2018-04-15T12:55:12.013Z,27.10
2018-04-15T12:57:39.524Z,26.10
2018-04-15T13:00:07.053Z,24.90
2018-04-15T13:02:34.577Z,23.90
2018-04-15T13:05:02.158Z,24.20
2018-04-15T13:07:30.356Z,25.70
2018-04-15T13:09:57.907Z,25.70
2018-04-15T13:12:25.337Z,26.50
2018-04-15T13:14:52.905Z,26.80
2018-04-15T13:17:20.404Z,26.10
2018-04-15T13:19:47.908Z,25.10
2018-04-15T13:22:15.522Z,24.60
2018-04-15T13:24:43.934Z,23.00
2018-04-15T13:27:12.276Z,22.10
2018-04-15T13:29:40.495Z,22.90
2018-04-15T13:32:08.006Z,22.90
2018-04-15T13:34:35.563Z,24.80
2018-04-15T13:37:03.076Z,25.80
2018-04-15T13:39:30.590Z,25.50
2018-04-15T13:41:58.256Z,24.50
2018-04-15T13:44:25.838Z,24.20
2018-04-15T13:46:53.372Z,24.40
2018-04-15T13:49:20.856Z,23.90
2018-04-15T13:51:50.069Z,23.90
2018-04-15T13:54:17.847Z,23.70
2018-04-15T13:56:46.251Z,22.80
2018-04-15T13:59:14.861Z,22.80
2018-04-15T14:01:43.136Z,21.60
2018-04-15T14:04:11.426Z,22.30
2018-04-15T14:06:39.715Z,23.40
2018-04-15T14:09:07.964Z,23.70
2018-04-15T14:11:35.546Z,23.70
2018-04-15T14:14:03.175Z,24.10
2018-04-15T14:16:35.098Z,23.50
2018-04-15T14:19:02.613Z,23.50
2018-04-15T14:21:30.184Z,23.00
2018-04-15T14:23:57.725Z,22.30
2018-04-15T14:26:25.971Z,21.40
2018-04-15T14:28:53.469Z,21.30
2018-04-15T14:31:22.399Z,21.20
2018-04-15T14:33:55.530Z,21.60
2018-04-15T14:36:24.070Z,21.60
2018-04-15T14:38:52.154Z,21.70
2018-04-15T14:41:21.830Z,21.60
2018-04-15T14:43:49.581Z,20.80
2018-04-15T14:46:18.041Z,20.20
2018-04-15T14:48:45.508Z,20.40
2018-04-15T14:51:13.779Z,20.50
2018-04-15T14:53:42.068Z,20.70
2018-04-15T14:56:12.415Z,20.80
2018-04-15T14:58:39.944Z,20.80
2018-04-15T15:01:08.062Z,20.80
2018-04-15T15:03:35.630Z,20.90
2018-04-15T15:06:03.065Z,20.80
2018-04-15T15:08:31.230Z,20.70
2018-04-15T15:10:58.742Z,20.80
2018-04-15T15:13:26.281Z,20.90
2018-04-15T15:15:53.753Z,21.00
2018-04-15T15:18:21.220Z,21.10
2018-04-15T15:20:49.334Z,20.90
2018-04-15T15:23:16.782Z,20.90
2018-04-15T15:25:44.342Z,20.80
2018-04-15T15:28:12.670Z,20.80
2018-04-15T15:30:40.901Z,20.80
2018-04-15T15:33:08.346Z,20.80
2018-04-15T15:35:35.852Z,20.70
2018-04-15T15:38:03.837Z,20.60
2018-04-15T15:40:31.366Z,20.40
2018-04-15T15:42:58.859Z,20.50
2018-04-15T15:45:26.373Z,20.70
2018-04-15T15:47:54.279Z,20.80
2018-04-15T15:50:21.767Z,20.70
2018-04-15T15:52:50.070Z,20.40
2018-04-15T15:55:18.599Z,20.50
2018-04-15T15:57:46.635Z,20.40
2018-04-15T16:00:14.999Z,20.00
2018-04-15T16:02:42.461Z,20.00
2018-04-15T16:05:10.918Z,19.70
2018-04-15T16:07:38.525Z,19.70
2018-04-15T16:10:06.177Z,19.70
2018-04-15T16:12:33.620Z,19.50
2018-04-15T16:15:01.157Z,19.50
2018-04-15T16:17:34.467Z,19.40
2018-04-15T16:20:02.704Z,19.50
2018-04-15T16:22:30.934Z,19.60
2018-04-15T16:24:58.495Z,19.50
2018-04-15T16:27:28.818Z,19.60
2018-04-15T16:29:56.451Z,19.70
2018-04-15T16:32:24.041Z,19.50
2018-04-15T16:34:51.452Z,19.50
2018-04-15T16:37:19.918Z,19.60
2018-04-15T16:39:47.409Z,19.60
2018-04-15T16:42:15.753Z,19.60
2018-04-15T16:47:30.207Z,19.50
2018-04-15T16:49:58.574Z,19.30
2018-04-15T16:52:26.792Z,19.20
2018-04-15T16:54:54.420Z,19.20
2018-04-15T16:57:22.627Z,18.90
2018-04-15T16:59:50.465Z,18.90
2018-04-15T17:02:17.962Z,18.80
2018-04-15T17:04:45.831Z,18.70
2018-04-15T17:07:13.382Z,18.60
2018-04-15T17:09:40.928Z,18.50
2018-04-15T17:12:08.479Z,18.40
2018-04-15T17:14:36.042Z,18.30
2018-04-15T17:17:04.325Z,18.20
2018-04-15T17:19:31.846Z,18.20
2018-04-15T17:21:59.386Z,18.10
2018-04-15T17:24:27.045Z,18.00
2018-04-15T17:26:56.112Z,17.90
2018-04-15T17:29:23.642Z,17.90
2018-04-15T17:31:51.203Z,17.90
2018-04-15T17:34:18.764Z,17.90
2018-04-15T17:36:46.200Z,17.80
2018-04-15T17:39:13.731Z,17.80
2018-04-15T17:41:41.612Z,17.80
2018-04-15T17:44:09.154Z,17.70
2018-04-15T17:46:36.800Z,17.70
2018-04-15T17:49:04.331Z,17.70
2018-04-15T17:51:31.843Z,17.60
2018-04-15T17:53:59.365Z,17.60
2018-04-15T17:56:28.705Z,17.50
2018-04-15T17:58:56.331Z,17.50
2018-04-15T18:01:23.780Z,17.50
2018-04-15T18:03:51.285Z,17.40
2018-04-15T18:06:18.846Z,17.40
2018-04-15T18:08:56.345Z,17.30
2018-04-15T18:11:24.597Z,17.30
2018-04-15T18:13:52.170Z,17.30
2018-04-15T18:26:35.516Z,17.00
2018-04-15T18:29:03.040Z,17.00
2018-04-15T18:31:30.731Z,16.90
2018-04-15T18:33:59.031Z,16.90
2018-04-15T18:36:26.515Z,16.90
2018-04-15T18:38:54.349Z,16.90
2018-04-15T18:41:21.996Z,16.90
2018-04-15T18:43:50.241Z,16.80
2018-04-15T18:46:17.843Z,16.80
2018-04-15T18:48:46.719Z,16.80
2018-04-15T18:51:14.521Z,16.80
2018-04-15T18:53:43.915Z,16.80
2018-04-15T18:56:13.649Z,16.70
2018-04-15T18:58:43.188Z,16.60
2018-04-15T19:01:10.790Z,16.60
2018-04-15T19:03:40.197Z,16.60
2018-04-15T19:06:07.705Z,16.60
2018-04-15T19:08:35.319Z,16.50
2018-04-15T19:11:03.753Z,16.50
2018-04-15T19:13:31.296Z,16.40
2018-04-15T19:15:59.625Z,16.40
2018-04-15T19:18:27.231Z,16.30
2018-04-15T19:20:54.823Z,16.40
2018-04-15T19:23:22.901Z,16.30
2018-04-15T19:25:50.583Z,16.40
2018-04-15T19:28:18.118Z,16.30
2018-04-15T19:30:46.637Z,16.30
2018-04-15T19:33:14.186Z,16.30
2018-04-15T19:35:42.511Z,16.20
2018-04-15T19:38:11.785Z,16.20
2018-04-15T19:40:39.583Z,16.20
2018-04-15T19:43:08.214Z,16.10
2018-04-15T19:45:36.575Z,16.10
2018-04-15T19:48:04.060Z,16.10
2018-04-15T19:50:32.267Z,16.00
2018-04-15T19:52:59.845Z,16.00
2018-04-15T19:55:27.347Z,15.90
2018-04-15T19:57:55.716Z,16.00
2018-04-15T20:00:23.774Z,15.90
2018-04-15T20:02:51.412Z,15.90
2018-04-15T20:05:18.894Z,15.90
2018-04-15T20:07:46.457Z,15.90
2018-04-15T20:10:13.945Z,15.80
2018-04-15T20:12:41.619Z,15.90
2018-04-15T20:15:09.796Z,15.90
2018-04-15T20:17:37.312Z,15.90
2018-04-15T20:20:04.821Z,15.80
2018-04-15T20:22:32.324Z,15.80
2018-04-15T20:24:59.828Z,15.80
2018-04-15T20:27:27.354Z,15.80
2018-04-15T20:29:55.249Z,15.80
2018-04-15T20:32:22.827Z,15.80
2018-04-15T20:34:50.422Z,15.70
2018-04-15T20:37:18.311Z,15.60
2018-04-15T20:39:45.809Z,15.60
2018-04-15T20:42:13.476Z,15.50
2018-04-15T20:44:40.994Z,15.50
2018-04-15T20:47:08.601Z,15.40
2018-04-15T20:49:37.204Z,15.40
2018-04-15T20:52:04.765Z,15.40
2018-04-15T20:54:32.386Z,15.40
2018-04-15T20:57:00.822Z,15.30
2018-04-15T20:59:29.291Z,15.30
2018-04-15T21:01:56.800Z,15.30
2018-04-15T21:04:24.706Z,15.20
2018-04-15T21:06:52.500Z,15.20
2018-04-15T21:09:21.426Z,15.20
2018-04-15T21:11:48.971Z,15.20
2018-04-15T21:14:16.469Z,15.20
2018-04-15T21:16:44.059Z,15.10
2018-04-15T21:19:15.259Z,15.10
2018-04-15T21:21:42.809Z,15.10
2018-04-15T21:24:10.316Z,15.10
2018-04-15T21:26:38.584Z,15.00
2018-04-15T21:29:07.236Z,14.90
2018-04-15T21:31:34.748Z,14.90
2018-04-15T21:34:03.225Z,14.80
2018-04-15T21:36:31.294Z,14.80
2018-04-15T21:39:00.087Z,14.70
2018-04-15T21:41:27.655Z,14.60
2018-04-15T21:43:55.203Z,14.60
2018-04-15T21:46:23.454Z,14.40
2018-04-15T21:48:51.051Z,14.40
2018-04-15T21:51:18.722Z,14.40
2018-04-15T21:53:46.347Z,14.30
2018-04-15T21:56:14.037Z,14.30
2018-04-15T21:58:41.595Z,14.20
2018-04-15T22:01:09.186Z,14.10
2018-04-15T22:03:36.728Z,14.00
2018-04-15T22:06:04.230Z,13.90
2018-04-15T22:08:32.616Z,13.70
2018-04-15T22:11:00.970Z,13.60
2018-04-15T22:13:28.508Z,13.60
2018-04-15T22:15:56.117Z,13.50
2018-04-15T22:18:23.702Z,13.50
2018-04-15T22:20:51.217Z,13.40
2018-04-15T22:23:18.767Z,13.30
2018-04-15T22:25:47.222Z,13.20
2018-04-15T22:28:15.050Z,13.20
2018-04-15T22:30:42.585Z,13.20
2018-04-15T22:33:10.093Z,13.10
2018-04-15T22:35:38.453Z,13.20
2018-04-15T22:38:05.950Z,13.20
2018-04-15T22:40:33.510Z,13.20
2018-04-15T22:43:01.048Z,13.20
2018-04-15T22:45:28.912Z,13.10
2018-04-15T22:47:56.447Z,13.00
2018-04-15T22:50:24.085Z,13.10
2018-04-15T22:52:52.222Z,13.10
2018-04-15T22:55:19.976Z,13.10
2018-04-15T22:57:47.456Z,13.20
2018-04-15T23:00:15.291Z,13.10
2018-04-15T23:02:42.806Z,13.00
2018-04-15T23:05:11.093Z,13.00
2018-04-15T23:07:39.364Z,13.10
2018-04-15T23:10:06.863Z,13.10
2018-04-15T23:12:34.430Z,13.10
2018-04-15T23:15:01.959Z,13.20
2018-04-15T23:17:31.128Z,13.10
2018-04-15T23:19:58.743Z,13.10
2018-04-15T23:22:27.035Z,13.00
2018-04-15T23:24:54.577Z,13.00
2018-04-15T23:27:22.903Z,12.90
2018-04-15T23:29:50.357Z,12.90
2018-04-15T23:32:17.870Z,12.80
2018-04-15T23:34:45.388Z,12.80
2018-04-15T23:37:12.887Z,12.80
2018-04-15T23:39:40.403Z,12.70
2018-04-15T23:42:09.094Z,12.50
2018-04-15T23:44:36.602Z,12.50
2018-04-15T23:47:04.167Z,12.40
2018-04-15T23:49:31.723Z,12.40
2018-04-15T23:51:59.230Z,12.40
2018-04-15T23:54:26.740Z,12.30
2018-04-15T23:56:54.293Z,12.20
2018-04-15T23:59:21.773Z,12.10
